sensor_id;sensor_type;location;lat;lon;timestamp;pressure;altitude;pressure_sealevel;temperature;humidity
40708;BME280;26392;42.696;23.350;2023-06-10T00:00:13;94943.81;;;17.68;100.00
40708;BME280;26392;42.696;23.350;2023-06-10T00:02:40;94947.66;;;17.67;100.00
40708;BME280;26392;42.696;23.350;2023-06-10T00:05:06;94937.91;;;17.61;100.00
40708;BME280;26392;42.696;23.350;2023-06-10T00:07:33;94948.00;;;17.52;100.00
40708;BME280;26392;42.696;23.350;2023-06-10T00:09:59;94945.56;;;17.50;100.00
40708;BME280;26392;42.696;23.350;2023-06-10T00:12:25;94948.03;;;17.38;100.00
40708;BME280;26392;42.696;23.350;2023-06-10T00:14:50;94935.88;;;17.39;100.00
40708;BME280;26392;42.696;23.350;2023-06-10T00:17:18;94935.50;;;17.32;100.00
40708;BME280;26392;42.696;23.350;2023-06-10T00:19:44;94936.00;;;17.34;100.00
40708;BME280;26392;42.696;23.350;2023-06-10T00:22:12;94933.03;;;17.30;100.00
40708;BME280;26392;42.696;23.350;2023-06-10T00:24:37;94934.06;;;17.48;100.00
40708;BME280;26392;42.696;23.350;2023-06-10T00:27:04;94930.16;;;17.63;100.00
40708;BME280;26392;42.696;23.350;2023-06-10T00:29:30;94931.34;;;17.71;100.00
40708;BME280;26392;42.696;23.350;2023-06-10T00:31:56;94934.00;;;17.76;100.00
40708;BME280;26392;42.696;23.350;2023-06-10T00:34:23;94936.34;;;17.82;100.00
40708;BME280;26392;42.696;23.350;2023-06-10T00:36:48;94940.84;;;17.78;100.00
40708;BME280;26392;42.696;23.350;2023-06-10T00:39:14;94942.06;;;17.86;100.00
40708;BME280;26392;42.696;23.350;2023-06-10T00:41:39;94945.31;;;17.88;100.00
40708;BME280;26392;42.696;23.350;2023-06-10T00:44:05;94933.16;;;17.89;100.00
40708;BME280;26392;42.696;23.350;2023-06-10T00:46:30;94931.91;;;17.95;100.00
40708;BME280;26392;42.696;23.350;2023-06-10T00:48:57;94936.00;;;17.98;100.00
40708;BME280;26392;42.696;23.350;2023-06-10T00:51:23;94940.19;;;17.95;100.00
40708;BME280;26392;42.696;23.350;2023-06-10T00:53:51;94929.03;;;18.00;100.00
40708;BME280;26392;42.696;23.350;2023-06-10T00:56:17;94934.34;;;18.10;100.00
40708;BME280;26392;42.696;23.350;2023-06-10T00:58:42;94939.03;;;18.10;100.00
40708;BME280;26392;42.696;23.350;2023-06-10T01:01:08;94932.09;;;18.13;100.00
40708;BME280;26392;42.696;23.350;2023-06-10T01:03:36;94945.34;;;18.10;100.00
40708;BME280;26392;42.696;23.350;2023-06-10T01:06:14;94941.84;;;17.96;100.00
40708;BME280;26392;42.696;23.350;2023-06-10T01:08:57;94940.94;;;17.87;100.00
40708;BME280;26392;42.696;23.350;2023-06-10T01:11:34;94952.38;;;17.80;100.00
40708;BME280;26392;42.696;23.350;2023-06-10T01:14:03;94939.53;;;17.76;100.00
40708;BME280;26392;42.696;23.350;2023-06-10T01:16:30;94952.38;;;17.80;100.00
40708;BME280;26392;42.696;23.350;2023-06-10T01:18:56;94955.13;;;17.80;100.00
40708;BME280;26392;42.696;23.350;2023-06-10T01:21:22;94954.22;;;17.85;100.00
40708;BME280;26392;42.696;23.350;2023-06-10T01:23:49;94952.47;;;17.89;100.00
40708;BME280;26392;42.696;23.350;2023-06-10T01:26:15;94951.22;;;17.95;100.00
40708;BME280;26392;42.696;23.350;2023-06-10T01:29:01;94942.03;;;18.00;100.00
40708;BME280;26392;42.696;23.350;2023-06-10T01:34:03;94937.94;;;17.97;100.00
40708;BME280;26392;42.696;23.350;2023-06-10T01:36:33;94938.00;;;18.06;100.00
40708;BME280;26392;42.696;23.350;2023-06-10T01:39:00;94942.72;;;18.05;100.00
40708;BME280;26392;42.696;23.350;2023-06-10T01:41:28;94946.28;;;18.06;100.00
40708;BME280;26392;42.696;23.350;2023-06-10T01:43:54;94934.56;;;18.00;100.00
40708;BME280;26392;42.696;23.350;2023-06-10T01:46:20;94938.09;;;18.15;100.00
40708;BME280;26392;42.696;23.350;2023-06-10T01:48:46;94935.72;;;18.22;100.00
40708;BME280;26392;42.696;23.350;2023-06-10T01:51:12;94939.16;;;18.27;100.00
40708;BME280;26392;42.696;23.350;2023-06-10T01:53:37;94929.97;;;18.32;100.00
40708;BME280;26392;42.696;23.350;2023-06-10T01:56:03;94938.72;;;18.34;100.00
40708;BME280;26392;42.696;23.350;2023-06-10T01:58:28;94927.69;;;18.34;100.00
40708;BME280;26392;42.696;23.350;2023-06-10T02:00:54;94923.19;;;18.38;100.00
40708;BME280;26392;42.696;23.350;2023-06-10T02:03:19;94919.75;;;18.32;100.00
40708;BME280;26392;42.696;23.350;2023-06-10T02:05:45;94923.19;;;18.38;100.00
40708;BME280;26392;42.696;23.350;2023-06-10T02:08:10;94908.25;;;18.39;100.00
40708;BME280;26392;42.696;23.350;2023-06-10T02:10:36;94931.97;;;18.40;100.00
40708;BME280;26392;42.696;23.350;2023-06-10T02:13:01;94922.38;;;18.38;100.00
40708;BME280;26392;42.696;23.350;2023-06-10T02:15:26;94928.88;;;18.42;100.00
40708;BME280;26392;42.696;23.350;2023-06-10T02:17:52;94924.81;;;18.39;100.00
40708;BME280;26392;42.696;23.350;2023-06-10T02:20:18;94923.81;;;18.35;100.00
40708;BME280;26392;42.696;23.350;2023-06-10T02:22:44;94915.66;;;18.30;100.00
40708;BME280;26392;42.696;23.350;2023-06-10T02:25:09;94918.66;;;18.20;100.00
40708;BME280;26392;42.696;23.350;2023-06-10T02:27:35;94917.59;;;18.07;100.00
40708;BME280;26392;42.696;23.350;2023-06-10T02:30:01;94911.13;;;18.11;100.00
40708;BME280;26392;42.696;23.350;2023-06-10T02:32:26;94911.53;;;18.19;100.00
40708;BME280;26392;42.696;23.350;2023-06-10T02:34:52;94903.63;;;18.26;100.00
40708;BME280;26392;42.696;23.350;2023-06-10T02:37:17;94906.94;;;18.14;100.00
40708;BME280;26392;42.696;23.350;2023-06-10T02:39:43;94907.75;;;18.15;100.00
40708;BME280;26392;42.696;23.350;2023-06-10T02:42:08;94904.25;;;18.23;100.00
40708;BME280;26392;42.696;23.350;2023-06-10T02:44:35;94882.06;;;18.05;100.00
40708;BME280;26392;42.696;23.350;2023-06-10T02:47:00;94898.63;;;18.28;100.00
40708;BME280;26392;42.696;23.350;2023-06-10T02:49:26;94898.03;;;18.40;100.00
40708;BME280;26392;42.696;23.350;2023-06-10T02:51:54;94895.97;;;18.45;100.00
40708;BME280;26392;42.696;23.350;2023-06-10T02:54:20;94893.72;;;18.47;100.00
40708;BME280;26392;42.696;23.350;2023-06-10T02:56:46;94896.34;;;18.52;100.00
40708;BME280;26392;42.696;23.350;2023-06-10T02:59:13;94891.63;;;18.53;100.00
40708;BME280;26392;42.696;23.350;2023-06-10T03:01:39;94897.47;;;18.51;100.00
40708;BME280;26392;42.696;23.350;2023-06-10T03:04:05;94891.34;;;18.54;100.00
40708;BME280;26392;42.696;23.350;2023-06-10T03:06:31;94902.06;;;18.65;100.00
40708;BME280;26392;42.696;23.350;2023-06-10T03:08:59;94898.22;;;18.66;100.00
40708;BME280;26392;42.696;23.350;2023-06-10T03:11:25;94904.41;;;18.71;100.00
40708;BME280;26392;42.696;23.350;2023-06-10T03:13:51;94909.00;;;18.53;100.00
40708;BME280;26392;42.696;23.350;2023-06-10T03:16:17;94903.72;;;18.34;100.00
40708;BME280;26392;42.696;23.350;2023-06-10T03:18:43;94916.53;;;18.17;100.00
40708;BME280;26392;42.696;23.350;2023-06-10T03:21:09;94914.91;;;18.16;100.00
40708;BME280;26392;42.696;23.350;2023-06-10T03:23:34;94913.53;;;18.04;100.00
40708;BME280;26392;42.696;23.350;2023-06-10T03:26:00;94916.84;;;17.93;100.00
40708;BME280;26392;42.696;23.350;2023-06-10T03:28:25;94916.03;;;17.78;100.00
40708;BME280;26392;42.696;23.350;2023-06-10T03:30:51;94935.84;;;17.80;100.00
40708;BME280;26392;42.696;23.350;2023-06-10T03:33:17;94920.75;;;17.64;100.00
40708;BME280;26392;42.696;23.350;2023-06-10T03:35:42;94930.94;;;17.63;100.00
40708;BME280;26392;42.696;23.350;2023-06-10T03:38:07;94943.31;;;17.52;100.00
40708;BME280;26392;42.696;23.350;2023-06-10T03:40:33;94943.31;;;17.52;100.00
40708;BME280;26392;42.696;23.350;2023-06-10T03:42:59;94943.84;;;17.27;100.00
40708;BME280;26392;42.696;23.350;2023-06-10T03:45:25;94945.06;;;17.20;100.00
40708;BME280;26392;42.696;23.350;2023-06-10T03:47:53;94926.22;;;17.00;100.00
40708;BME280;26392;42.696;23.350;2023-06-10T03:50:19;94930.19;;;16.94;100.00
40708;BME280;26392;42.696;23.350;2023-06-10T03:52:45;94937.34;;;17.09;100.00
40708;BME280;26392;42.696;23.350;2023-06-10T03:55:10;94926.09;;;17.05;100.00
40708;BME280;26392;42.696;23.350;2023-06-10T03:57:38;94933.16;;;17.11;100.00
40708;BME280;26392;42.696;23.350;2023-06-10T04:00:05;94930.00;;;17.18;100.00
40708;BME280;26392;42.696;23.350;2023-06-10T04:02:36;94929.56;;;17.25;100.00
40708;BME280;26392;42.696;23.350;2023-06-10T04:05:02;94932.03;;;17.40;100.00
40708;BME280;26392;42.696;23.350;2023-06-10T04:07:28;94936.19;;;17.37;100.00
40708;BME280;26392;42.696;23.350;2023-06-10T04:09:53;94946.50;;;17.45;100.00
40708;BME280;26392;42.696;23.350;2023-06-10T04:12:19;94940.75;;;17.56;100.00
40708;BME280;26392;42.696;23.350;2023-06-10T04:14:44;94939.72;;;17.65;100.00
40708;BME280;26392;42.696;23.350;2023-06-10T04:17:09;94935.91;;;17.75;100.00
40708;BME280;26392;42.696;23.350;2023-06-10T04:19:35;94937.50;;;17.81;100.00
40708;BME280;26392;42.696;23.350;2023-06-10T04:22:01;94945.91;;;17.99;100.00
40708;BME280;26392;42.696;23.350;2023-06-10T04:24:27;94944.38;;;18.06;100.00
40708;BME280;26392;42.696;23.350;2023-06-10T04:26:53;94944.09;;;18.17;100.00
40708;BME280;26392;42.696;23.350;2023-06-10T04:29:18;94951.88;;;18.15;100.00
40708;BME280;26392;42.696;23.350;2023-06-10T04:31:44;94938.53;;;18.30;100.00
40708;BME280;26392;42.696;23.350;2023-06-10T04:34:11;94932.97;;;18.22;100.00
40708;BME280;26392;42.696;23.350;2023-06-10T04:36:36;94941.28;;;18.30;100.00
40708;BME280;26392;42.696;23.350;2023-06-10T04:39:02;94934.53;;;18.37;100.00
40708;BME280;26392;42.696;23.350;2023-06-10T04:41:28;94933.94;;;18.48;100.00
40708;BME280;26392;42.696;23.350;2023-06-10T04:43:56;94920.09;;;18.40;100.00
40708;BME280;26392;42.696;23.350;2023-06-10T04:46:21;94932.50;;;18.51;100.00
40708;BME280;26392;42.696;23.350;2023-06-10T04:48:47;94933.19;;;18.56;100.00
40708;BME280;26392;42.696;23.350;2023-06-10T04:51:12;94932.88;;;18.58;100.00
40708;BME280;26392;42.696;23.350;2023-06-10T04:53:38;94935.47;;;18.77;100.00
40708;BME280;26392;42.696;23.350;2023-06-10T04:56:04;94925.78;;;18.88;100.00
40708;BME280;26392;42.696;23.350;2023-06-10T04:58:30;94937.41;;;19.08;100.00
40708;BME280;26392;42.696;23.350;2023-06-10T05:00:55;94936.63;;;19.16;100.00
40708;BME280;26392;42.696;23.350;2023-06-10T05:03:20;94932.28;;;18.92;100.00
40708;BME280;26392;42.696;23.350;2023-06-10T05:05:46;94939.13;;;18.95;100.00
40708;BME280;26392;42.696;23.350;2023-06-10T05:08:11;94927.38;;;19.20;100.00
40708;BME280;26392;42.696;23.350;2023-06-10T05:10:37;94932.44;;;19.27;100.00
40708;BME280;26392;42.696;23.350;2023-06-10T05:13:03;94940.00;;;19.53;100.00
40708;BME280;26392;42.696;23.350;2023-06-10T05:15:28;94933.22;;;19.67;100.00
40708;BME280;26392;42.696;23.350;2023-06-10T05:17:56;94939.78;;;19.80;100.00
40708;BME280;26392;42.696;23.350;2023-06-10T05:20:23;94926.63;;;19.95;100.00
40708;BME280;26392;42.696;23.350;2023-06-10T05:22:50;94926.63;;;20.12;100.00
40708;BME280;26392;42.696;23.350;2023-06-10T05:25:16;94929.53;;;20.24;100.00
40708;BME280;26392;42.696;23.350;2023-06-10T05:27:41;94925.97;;;20.24;100.00
40708;BME280;26392;42.696;23.350;2023-06-10T05:30:09;94926.94;;;20.37;100.00
40708;BME280;26392;42.696;23.350;2023-06-10T05:32:35;94939.31;;;20.39;100.00
40708;BME280;26392;42.696;23.350;2023-06-10T05:35:00;94922.56;;;20.53;100.00
40708;BME280;26392;42.696;23.350;2023-06-10T05:37:26;94930.69;;;20.58;100.00
40708;BME280;26392;42.696;23.350;2023-06-10T05:39:52;94925.34;;;20.53;100.00
40708;BME280;26392;42.696;23.350;2023-06-10T05:42:17;94927.06;;;20.66;100.00
40708;BME280;26392;42.696;23.350;2023-06-10T05:44:44;94933.88;;;20.86;100.00
40708;BME280;26392;42.696;23.350;2023-06-10T05:47:10;94928.97;;;21.00;100.00
40708;BME280;26392;42.696;23.350;2023-06-10T05:49:35;94934.50;;;20.92;100.00
40708;BME280;26392;42.696;23.350;2023-06-10T05:52:01;94931.22;;;21.07;100.00
40708;BME280;26392;42.696;23.350;2023-06-10T05:54:26;94929.63;;;20.89;100.00
40708;BME280;26392;42.696;23.350;2023-06-10T05:56:52;94942.28;;;21.07;100.00
40708;BME280;26392;42.696;23.350;2023-06-10T05:59:17;94910.66;;;21.08;100.00
40708;BME280;26392;42.696;23.350;2023-06-10T06:01:43;94940.44;;;21.20;100.00
40708;BME280;26392;42.696;23.350;2023-06-10T06:04:11;94938.19;;;21.13;100.00
40708;BME280;26392;42.696;23.350;2023-06-10T06:06:38;94940.84;;;21.01;100.00
40708;BME280;26392;42.696;23.350;2023-06-10T06:09:04;94941.22;;;20.82;100.00
40708;BME280;26392;42.696;23.350;2023-06-10T06:11:29;94928.47;;;20.98;100.00
40708;BME280;26392;42.696;23.350;2023-06-10T06:13:55;94939.63;;;21.19;100.00
40708;BME280;26392;42.696;23.350;2023-06-10T06:16:21;94924.66;;;21.20;100.00
40708;BME280;26392;42.696;23.350;2023-06-10T06:18:46;94937.31;;;21.39;100.00
40708;BME280;26392;42.696;23.350;2023-06-10T06:21:12;94928.72;;;21.61;100.00
40708;BME280;26392;42.696;23.350;2023-06-10T06:23:37;94929.28;;;21.76;100.00
40708;BME280;26392;42.696;23.350;2023-06-10T06:26:03;94933.94;;;22.13;100.00
40708;BME280;26392;42.696;23.350;2023-06-10T06:28:28;94951.75;;;22.33;100.00
40708;BME280;26392;42.696;23.350;2023-06-10T06:30:55;94941.06;;;22.44;100.00
40708;BME280;26392;42.696;23.350;2023-06-10T06:33:21;94938.69;;;22.34;100.00
40708;BME280;26392;42.696;23.350;2023-06-10T06:35:47;94941.47;;;22.55;100.00
40708;BME280;26392;42.696;23.350;2023-06-10T06:38:12;94941.25;;;22.39;100.00
40708;BME280;26392;42.696;23.350;2023-06-10T06:40:38;94930.34;;;22.34;100.00
40708;BME280;26392;42.696;23.350;2023-06-10T06:43:03;94932.72;;;22.23;100.00
40708;BME280;26392;42.696;23.350;2023-06-10T06:45:29;94931.50;;;22.33;100.00
40708;BME280;26392;42.696;23.350;2023-06-10T06:47:54;94930.09;;;22.27;100.00
40708;BME280;26392;42.696;23.350;2023-06-10T06:50:21;94922.72;;;22.31;100.00
40708;BME280;26392;42.696;23.350;2023-06-10T06:52:46;94917.38;;;22.26;100.00
40708;BME280;26392;42.696;23.350;2023-06-10T06:55:12;94920.25;;;22.08;100.00
40708;BME280;26392;42.696;23.350;2023-06-10T06:57:37;94925.25;;;22.15;100.00
40708;BME280;26392;42.696;23.350;2023-06-10T07:00:03;94916.44;;;22.22;100.00
40708;BME280;26392;42.696;23.350;2023-06-10T07:02:32;94913.81;;;22.17;100.00
40708;BME280;26392;42.696;23.350;2023-06-10T07:04:58;94924.41;;;22.23;100.00
40708;BME280;26392;42.696;23.350;2023-06-10T07:07:24;94915.28;;;22.23;100.00
40708;BME280;26392;42.696;23.350;2023-06-10T07:09:50;94908.22;;;22.25;100.00
40708;BME280;26392;42.696;23.350;2023-06-10T07:12:15;94915.94;;;22.20;100.00
40708;BME280;26392;42.696;23.350;2023-06-10T07:14:41;94918.78;;;22.32;100.00
40708;BME280;26392;42.696;23.350;2023-06-10T07:17:07;94910.25;;;22.37;100.00
40708;BME280;26392;42.696;23.350;2023-06-10T07:19:32;94911.94;;;22.08;100.00
40708;BME280;26392;42.696;23.350;2023-06-10T07:21:57;94907.22;;;22.30;100.00
40708;BME280;26392;42.696;23.350;2023-06-10T07:24:23;94902.44;;;22.51;100.00
40708;BME280;26392;42.696;23.350;2023-06-10T07:26:48;94901.81;;;22.67;100.00
40708;BME280;26392;42.696;23.350;2023-06-10T07:29:14;94909.66;;;22.65;90.88
40708;BME280;26392;42.696;23.350;2023-06-10T07:31:41;94909.88;;;22.60;87.85
40708;BME280;26392;42.696;23.350;2023-06-10T07:34:06;94908.34;;;22.83;81.16
40708;BME280;26392;42.696;23.350;2023-06-10T07:36:32;94898.13;;;23.08;80.90
40708;BME280;26392;42.696;23.350;2023-06-10T07:38:57;94908.81;;;23.31;74.19
40708;BME280;26392;42.696;23.350;2023-06-10T07:41:23;94911.38;;;23.36;72.59
40708;BME280;26392;42.696;23.350;2023-06-10T07:43:52;94908.44;;;23.20;74.10
40708;BME280;26392;42.696;23.350;2023-06-10T07:46:20;94893.59;;;23.16;75.20
40708;BME280;26392;42.696;23.350;2023-06-10T07:48:47;94902.09;;;23.32;75.67
40708;BME280;26392;42.696;23.350;2023-06-10T07:51:12;94897.56;;;23.39;76.04
40708;BME280;26392;42.696;23.350;2023-06-10T07:53:38;94892.25;;;23.34;73.79
40708;BME280;26392;42.696;23.350;2023-06-10T07:56:03;94892.59;;;23.45;70.99
40708;BME280;26392;42.696;23.350;2023-06-10T07:58:29;94892.00;;;23.52;73.15
40708;BME280;26392;42.696;23.350;2023-06-10T08:00:54;94889.69;;;23.66;74.47
40708;BME280;26392;42.696;23.350;2023-06-10T08:03:20;94903.81;;;23.61;72.70
40708;BME280;26392;42.696;23.350;2023-06-10T08:05:45;94904.97;;;23.60;75.26
40708;BME280;26392;42.696;23.350;2023-06-10T08:08:10;94890.16;;;23.31;72.38
40708;BME280;26392;42.696;23.350;2023-06-10T08:10:36;94897.34;;;23.44;73.64
40708;BME280;26392;42.696;23.350;2023-06-10T08:13:01;94897.66;;;23.55;71.64
40708;BME280;26392;42.696;23.350;2023-06-10T08:15:26;94889.91;;;23.85;71.77
40708;BME280;26392;42.696;23.350;2023-06-10T08:17:52;94884.84;;;23.75;70.67
40708;BME280;26392;42.696;23.350;2023-06-10T08:20:18;94886.56;;;23.67;66.47
40708;BME280;26392;42.696;23.350;2023-06-10T08:22:43;94867.13;;;23.31;66.08
40708;BME280;26392;42.696;23.350;2023-06-10T08:25:09;94883.56;;;23.73;67.73
40708;BME280;26392;42.696;23.350;2023-06-10T08:27:35;94881.09;;;23.96;65.49
40708;BME280;26392;42.696;23.350;2023-06-10T08:30:01;94871.00;;;23.66;62.64
40708;BME280;26392;42.696;23.350;2023-06-10T08:32:26;94872.78;;;23.71;65.33
40708;BME280;26392;42.696;23.350;2023-06-10T08:34:52;94862.78;;;23.95;64.65
40708;BME280;26392;42.696;23.350;2023-06-10T08:37:17;94857.25;;;24.23;63.23
40708;BME280;26392;42.696;23.350;2023-06-10T08:39:42;94863.56;;;24.48;62.42
40708;BME280;26392;42.696;23.350;2023-06-10T08:42:22;94859.53;;;24.61;60.79
40708;BME280;26392;42.696;23.350;2023-06-10T08:44:54;94864.91;;;24.82;61.13
40708;BME280;26392;42.696;23.350;2023-06-10T08:47:24;94858.78;;;24.76;61.86
40708;BME280;26392;42.696;23.350;2023-06-10T08:49:51;94851.25;;;24.93;60.92
40708;BME280;26392;42.696;23.350;2023-06-10T08:52:20;94835.75;;;25.23;60.85
40708;BME280;26392;42.696;23.350;2023-06-10T08:54:52;94842.06;;;25.56;58.38
40708;BME280;26392;42.696;23.350;2023-06-10T08:57:18;94840.53;;;25.74;57.09
40708;BME280;26392;42.696;23.350;2023-06-10T08:59:46;94845.88;;;26.18;56.01
40708;BME280;26392;42.696;23.350;2023-06-10T09:02:13;94828.91;;;26.07;51.77
40708;BME280;26392;42.696;23.350;2023-06-10T09:04:39;94832.50;;;25.88;52.84
40708;BME280;26392;42.696;23.350;2023-06-10T09:07:05;94842.44;;;25.54;52.66
40708;BME280;26392;42.696;23.350;2023-06-10T09:09:32;94836.28;;;25.29;53.35
40708;BME280;26392;42.696;23.350;2023-06-10T09:11:58;94836.16;;;25.26;53.57
40708;BME280;26392;42.696;23.350;2023-06-10T09:14:23;94836.97;;;25.10;55.02
40708;BME280;26392;42.696;23.350;2023-06-10T09:16:49;94834.91;;;25.23;57.15
40708;BME280;26392;42.696;23.350;2023-06-10T09:19:16;94824.69;;;25.62;56.77
40708;BME280;26392;42.696;23.350;2023-06-10T09:21:42;94831.50;;;25.81;56.66
40708;BME280;26392;42.696;23.350;2023-06-10T09:24:07;94824.47;;;25.87;53.86
40708;BME280;26392;42.696;23.350;2023-06-10T09:26:33;94826.72;;;25.97;54.85
40708;BME280;26392;42.696;23.350;2023-06-10T09:29:06;94818.09;;;25.86;54.83
40708;BME280;26392;42.696;23.350;2023-06-10T09:31:36;94832.56;;;25.25;55.44
40708;BME280;26392;42.696;23.350;2023-06-10T09:34:09;94821.34;;;25.21;57.35
40708;BME280;26392;42.696;23.350;2023-06-10T09:36:35;94821.16;;;25.14;57.15
40708;BME280;26392;42.696;23.350;2023-06-10T09:39:02;94823.75;;;25.07;55.46
40708;BME280;26392;42.696;23.350;2023-06-10T09:41:35;94822.78;;;25.15;56.08
40708;BME280;26392;42.696;23.350;2023-06-10T09:44:01;94812.88;;;25.02;56.73
40708;BME280;26392;42.696;23.350;2023-06-10T09:46:31;94808.94;;;25.35;56.85
40708;BME280;26392;42.696;23.350;2023-06-10T09:49:00;94808.69;;;25.59;52.71
40708;BME280;26392;42.696;23.350;2023-06-10T09:51:27;94818.19;;;25.74;54.38
40708;BME280;26392;42.696;23.350;2023-06-10T09:53:53;94808.13;;;26.05;52.20
40708;BME280;26392;42.696;23.350;2023-06-10T09:56:19;94803.59;;;26.36;51.05
40708;BME280;26392;42.696;23.350;2023-06-10T09:58:45;94801.16;;;26.53;51.33
40708;BME280;26392;42.696;23.350;2023-06-10T10:01:13;94793.13;;;26.32;54.00
40708;BME280;26392;42.696;23.350;2023-06-10T10:03:46;94798.16;;;25.68;56.05
40708;BME280;26392;42.696;23.350;2023-06-10T10:06:12;94793.44;;;25.88;57.31
40708;BME280;26392;42.696;23.350;2023-06-10T10:08:38;94783.72;;;25.82;54.68
40708;BME280;26392;42.696;23.350;2023-06-10T10:11:04;94791.91;;;25.91;53.11
40708;BME280;26392;42.696;23.350;2023-06-10T10:13:33;94787.47;;;26.09;52.02
40708;BME280;26392;42.696;23.350;2023-06-10T10:16:03;94777.09;;;26.29;52.70
40708;BME280;26392;42.696;23.350;2023-06-10T10:18:31;94781.06;;;26.48;53.41
40708;BME280;26392;42.696;23.350;2023-06-10T10:20:58;94776.84;;;26.77;54.18
40708;BME280;26392;42.696;23.350;2023-06-10T10:23:39;94778.06;;;27.02;50.57
40708;BME280;26392;42.696;23.350;2023-06-10T10:26:09;94784.00;;;26.97;50.94
40708;BME280;26392;42.696;23.350;2023-06-10T10:28:45;94778.28;;;26.90;49.42
40708;BME280;26392;42.696;23.350;2023-06-10T10:31:16;94771.78;;;26.44;51.01
40708;BME280;26392;42.696;23.350;2023-06-10T10:33:54;94770.94;;;25.46;50.97
40708;BME280;26392;42.696;23.350;2023-06-10T10:36:21;94773.59;;;25.07;53.09
40708;BME280;26392;42.696;23.350;2023-06-10T10:38:47;94773.88;;;25.18;54.14
40708;BME280;26392;42.696;23.350;2023-06-10T10:41:15;94761.47;;;25.51;53.19
40708;BME280;26392;42.696;23.350;2023-06-10T10:43:41;94766.44;;;25.77;50.99
40708;BME280;26392;42.696;23.350;2023-06-10T10:46:12;94767.88;;;25.86;50.24
40708;BME280;26392;42.696;23.350;2023-06-10T10:48:39;94763.41;;;26.44;50.25
40708;BME280;26392;42.696;23.350;2023-06-10T10:51:06;94743.00;;;26.82;48.72
40708;BME280;26392;42.696;23.350;2023-06-10T10:53:32;94764.66;;;27.35;47.63
40708;BME280;26392;42.696;23.350;2023-06-10T10:56:08;94742.34;;;27.68;46.22
40708;BME280;26392;42.696;23.350;2023-06-10T10:58:34;94742.44;;;28.02;46.33
40708;BME280;26392;42.696;23.350;2023-06-10T11:00:59;94746.09;;;28.06;46.04
40708;BME280;26392;42.696;23.350;2023-06-10T11:03:29;94743.84;;;28.23;47.33
40708;BME280;26392;42.696;23.350;2023-06-10T11:05:57;94735.88;;;27.91;47.52
40708;BME280;26392;42.696;23.350;2023-06-10T11:10:58;94741.78;;;27.29;48.18
40708;BME280;26392;42.696;23.350;2023-06-10T11:13:25;94736.53;;;27.51;49.37
40708;BME280;26392;42.696;23.350;2023-06-10T11:15:52;94723.28;;;27.48;49.19
40708;BME280;26392;42.696;23.350;2023-06-10T11:18:29;94710.69;;;27.91;46.88
40708;BME280;26392;42.696;23.350;2023-06-10T11:21:00;94721.84;;;27.87;46.28
40708;BME280;26392;42.696;23.350;2023-06-10T11:31:23;94711.31;;;26.51;50.00
40708;BME280;26392;42.696;23.350;2023-06-10T11:33:54;94694.88;;;26.04;50.45
40708;BME280;26392;42.696;23.350;2023-06-10T11:36:21;94702.56;;;25.72;50.00
40708;BME280;26392;42.696;23.350;2023-06-10T11:38:47;94694.53;;;25.86;50.72
40708;BME280;26392;42.696;23.350;2023-06-10T11:41:13;94697.41;;;26.12;49.69
40708;BME280;26392;42.696;23.350;2023-06-10T11:43:46;94702.72;;;26.41;45.69
40708;BME280;26392;42.696;23.350;2023-06-10T11:46:13;94699.25;;;26.67;45.16
40708;BME280;26392;42.696;23.350;2023-06-10T11:48:39;94691.66;;;26.67;44.48
40708;BME280;26392;42.696;23.350;2023-06-10T11:51:08;94692.56;;;26.98;42.60
40708;BME280;26392;42.696;23.350;2023-06-10T11:53:34;94702.97;;;27.24;41.20
40708;BME280;26392;42.696;23.350;2023-06-10T11:55:59;94692.22;;;27.26;41.14
40708;BME280;26392;42.696;23.350;2023-06-10T11:58:25;94684.03;;;27.40;41.61
40708;BME280;26392;42.696;23.350;2023-06-10T12:00:55;94690.81;;;27.39;39.50
40708;BME280;26392;42.696;23.350;2023-06-10T12:03:24;94688.63;;;27.02;39.86
40708;BME280;26392;42.696;23.350;2023-06-10T12:06:14;94684.94;;;27.21;39.24
40708;BME280;26392;42.696;23.350;2023-06-10T12:08:43;94673.59;;;27.67;40.45
40708;BME280;26392;42.696;23.350;2023-06-10T12:11:08;94676.84;;;28.03;38.39
40708;BME280;26392;42.696;23.350;2023-06-10T12:13:34;94667.41;;;28.19;40.27
40708;BME280;26392;42.696;23.350;2023-06-10T12:16:09;94676.75;;;28.33;36.97
40708;BME280;26392;42.696;23.350;2023-06-10T12:18:35;94667.06;;;28.24;37.42
40708;BME280;26392;42.696;23.350;2023-06-10T12:21:00;94652.81;;;27.99;36.75
40708;BME280;26392;42.696;23.350;2023-06-10T12:23:26;94675.72;;;28.11;36.64
40708;BME280;26392;42.696;23.350;2023-06-10T12:25:53;94662.41;;;27.67;36.79
40708;BME280;26392;42.696;23.350;2023-06-10T12:28:26;94678.25;;;27.86;37.20
40708;BME280;26392;42.696;23.350;2023-06-10T12:31:06;94670.53;;;28.10;37.06
40708;BME280;26392;42.696;23.350;2023-06-10T12:33:32;94671.69;;;28.09;36.37
40708;BME280;26392;42.696;23.350;2023-06-10T12:35:58;94665.75;;;28.14;37.37
40708;BME280;26392;42.696;23.350;2023-06-10T12:38:24;94664.59;;;28.15;36.90
40708;BME280;26392;42.696;23.350;2023-06-10T12:40:52;94657.19;;;27.96;37.66
40708;BME280;26392;42.696;23.350;2023-06-10T12:43:22;94650.19;;;28.17;36.53
40708;BME280;26392;42.696;23.350;2023-06-10T12:45:49;94652.06;;;28.05;36.74
40708;BME280;26392;42.696;23.350;2023-06-10T12:48:21;94642.56;;;28.14;36.00
40708;BME280;26392;42.696;23.350;2023-06-10T12:50:52;94645.00;;;28.56;36.27
40708;BME280;26392;42.696;23.350;2023-06-10T12:53:18;94656.03;;;28.83;36.35